sensor_id;sensor_type;location;lat;lon;timestamp;temperature;humidity
41953;DHT22;63613;28.200;112.870;2023-04-01T00:01:20;18.80;79.40
41953;DHT22;63613;28.200;112.870;2023-04-01T00:03:47;18.90;79.30
41953;DHT22;63613;28.200;112.870;2023-04-01T00:06:16;18.90;79.30
41953;DHT22;63613;28.200;112.870;2023-04-01T00:08:44;18.90;79.30
41953;DHT22;63613;28.200;112.870;2023-04-01T00:11:30;18.90;79.30
41953;DHT22;63613;28.200;112.870;2023-04-01T00:13:57;18.90;79.20
41953;DHT22;63613;28.200;112.870;2023-04-01T00:16:24;19.00;79.10
41953;DHT22;63613;28.200;112.870;2023-04-01T00:18:51;19.00;79.00
41953;DHT22;63613;28.200;112.870;2023-04-01T00:21:19;18.90;79.10
41953;DHT22;63613;28.200;112.870;2023-04-01T00:23:46;19.00;79.00
41953;DHT22;63613;28.200;112.870;2023-04-01T00:26:14;19.00;79.00
41953;DHT22;63613;28.200;112.870;2023-04-01T00:29:01;19.00;79.10
41953;DHT22;63613;28.200;112.870;2023-04-01T00:31:28;19.00;79.10
41953;DHT22;63613;28.200;112.870;2023-04-01T00:33:55;19.00;79.00
41953;DHT22;63613;28.200;112.870;2023-04-01T00:36:22;19.00;79.00
41953;DHT22;63613;28.200;112.870;2023-04-01T00:38:49;19.00;78.90
41953;DHT22;63613;28.200;112.870;2023-04-01T00:41:19;19.00;78.70
41953;DHT22;63613;28.200;112.870;2023-04-01T00:43:49;19.00;78.70
41953;DHT22;63613;28.200;112.870;2023-04-01T00:46:16;19.00;78.60
41953;DHT22;63613;28.200;112.870;2023-04-01T00:48:52;19.00;78.60
41953;DHT22;63613;28.200;112.870;2023-04-01T00:51:25;19.10;78.50
41953;DHT22;63613;28.200;112.870;2023-04-01T00:53:56;19.10;78.50
41953;DHT22;63613;28.200;112.870;2023-04-01T00:56:49;19.10;78.50
41953;DHT22;63613;28.200;112.870;2023-04-01T00:59:30;19.10;78.60
41953;DHT22;63613;28.200;112.870;2023-04-01T01:02:00;19.10;78.70
41953;DHT22;63613;28.200;112.870;2023-04-01T01:04:30;19.10;78.70
41953;DHT22;63613;28.200;112.870;2023-04-01T01:18:19;19.20;79.10
41953;DHT22;63613;28.200;112.870;2023-04-01T01:35:44;19.30;78.20
41953;DHT22;63613;28.200;112.870;2023-04-01T01:38:17;19.30;78.40
41953;DHT22;63613;28.200;112.870;2023-04-01T01:40:49;19.30;78.50
41953;DHT22;63613;28.200;112.870;2023-04-01T01:43:26;19.30;78.50
41953;DHT22;63613;28.200;112.870;2023-04-01T01:45:58;19.30;78.40
41953;DHT22;63613;28.200;112.870;2023-04-01T01:48:28;19.40;78.40
41953;DHT22;63613;28.200;112.870;2023-04-01T01:50:55;19.40;78.40
41953;DHT22;63613;28.200;112.870;2023-04-01T01:53:25;19.40;78.50
41953;DHT22;63613;28.200;112.870;2023-04-01T01:55:52;19.40;78.50
41953;DHT22;63613;28.200;112.870;2023-04-01T01:58:27;19.40;78.40
41953;DHT22;63613;28.200;112.870;2023-04-01T02:01:01;19.50;78.20
41953;DHT22;63613;28.200;112.870;2023-04-01T02:03:33;19.50;78.50
41953;DHT22;63613;28.200;112.870;2023-04-01T02:06:02;19.50;78.30
41953;DHT22;63613;28.200;112.870;2023-04-01T02:08:32;19.50;78.40
41953;DHT22;63613;28.200;112.870;2023-04-01T02:11:06;19.60;78.50
41953;DHT22;63613;28.200;112.870;2023-04-01T02:13:51;19.60;78.60
41953;DHT22;63613;28.200;112.870;2023-04-01T02:17:09;19.60;78.80
41953;DHT22;63613;28.200;112.870;2023-04-01T02:19:17;19.70;78.80
41953;DHT22;63613;28.200;112.870;2023-04-01T02:21:55;19.80;78.70
41953;DHT22;63613;28.200;112.870;2023-04-01T02:24:24;19.80;78.80
41953;DHT22;63613;28.200;112.870;2023-04-01T02:27:12;19.80;78.60
41953;DHT22;63613;28.200;112.870;2023-04-01T02:29:40;19.80;78.60
41953;DHT22;63613;28.200;112.870;2023-04-01T02:32:09;19.80;78.40
41953;DHT22;63613;28.200;112.870;2023-04-01T02:34:36;19.80;78.60
41953;DHT22;63613;28.200;112.870;2023-04-01T02:37:03;19.80;78.70
41953;DHT22;63613;28.200;112.870;2023-04-01T02:39:30;19.90;78.50
41953;DHT22;63613;28.200;112.870;2023-04-01T02:41:57;19.90;78.40
41953;DHT22;63613;28.200;112.870;2023-04-01T02:44:30;19.90;78.20
41953;DHT22;63613;28.200;112.870;2023-04-01T02:47:00;20.00;78.50
41953;DHT22;63613;28.200;112.870;2023-04-01T02:49:29;20.10;78.80
41953;DHT22;63613;28.200;112.870;2023-04-01T02:51:56;20.10;78.90
41953;DHT22;63613;28.200;112.870;2023-04-01T02:54:23;20.10;79.00
41953;DHT22;63613;28.200;112.870;2023-04-01T02:56:50;20.10;79.00
41953;DHT22;63613;28.200;112.870;2023-04-01T02:59:17;20.20;78.90
41953;DHT22;63613;28.200;112.870;2023-04-01T03:01:44;20.20;79.00
41953;DHT22;63613;28.200;112.870;2023-04-01T03:04:14;20.20;78.90
41953;DHT22;63613;28.200;112.870;2023-04-01T03:06:41;20.30;79.00
41953;DHT22;63613;28.200;112.870;2023-04-01T03:09:11;20.30;79.00
41953;DHT22;63613;28.200;112.870;2023-04-01T03:11:39;20.30;78.80
41953;DHT22;63613;28.200;112.870;2023-04-01T03:14:06;20.40;78.30
41953;DHT22;63613;28.200;112.870;2023-04-01T03:16:33;20.50;78.50
41953;DHT22;63613;28.200;112.870;2023-04-01T03:19:00;20.50;78.40
41953;DHT22;63613;28.200;112.870;2023-04-01T03:21:28;20.50;78.50
41953;DHT22;63613;28.200;112.870;2023-04-01T03:23:55;20.60;78.30
41953;DHT22;63613;28.200;112.870;2023-04-01T03:26:22;20.60;78.30
41953;DHT22;63613;28.200;112.870;2023-04-01T03:28:49;20.70;78.10
41953;DHT22;63613;28.200;112.870;2023-04-01T03:31:17;20.70;78.30
41953;DHT22;63613;28.200;112.870;2023-04-01T03:33:48;20.80;78.20
41953;DHT22;63613;28.200;112.870;2023-04-01T03:36:34;20.80;77.60
41953;DHT22;63613;28.200;112.870;2023-04-01T03:39:02;20.60;74.80
41953;DHT22;63613;28.200;112.870;2023-04-01T03:41:32;20.50;73.10
41953;DHT22;63613;28.200;112.870;2023-04-01T03:44:01;20.50;71.40
41953;DHT22;63613;28.200;112.870;2023-04-01T03:46:28;20.50;70.20
41953;DHT22;63613;28.200;112.870;2023-04-01T03:48:55;20.50;68.80
41953;DHT22;63613;28.200;112.870;2023-04-01T03:51:25;20.50;67.70
41953;DHT22;63613;28.200;112.870;2023-04-01T03:53:51;20.50;67.70
41953;DHT22;63613;28.200;112.870;2023-04-01T03:56:18;20.50;67.10
41953;DHT22;63613;28.200;112.870;2023-04-01T03:58:45;20.50;67.00
41953;DHT22;63613;28.200;112.870;2023-04-01T04:01:19;20.50;66.80
41953;DHT22;63613;28.200;112.870;2023-04-01T04:03:51;20.60;66.30
41953;DHT22;63613;28.200;112.870;2023-04-01T04:06:19;20.60;66.10
41953;DHT22;63613;28.200;112.870;2023-04-01T04:08:46;20.60;66.20
41953;DHT22;63613;28.200;112.870;2023-04-01T04:11:12;20.60;65.70
41953;DHT22;63613;28.200;112.870;2023-04-01T04:13:40;20.50;65.70
41953;DHT22;63613;28.200;112.870;2023-04-01T04:16:07;20.60;65.10
41953;DHT22;63613;28.200;112.870;2023-04-01T04:18:35;20.70;64.80
41953;DHT22;63613;28.200;112.870;2023-04-01T04:21:02;20.70;64.70
41953;DHT22;63613;28.200;112.870;2023-04-01T04:23:29;20.80;65.80
41953;DHT22;63613;28.200;112.870;2023-04-01T04:25:59;20.80;65.10
41953;DHT22;63613;28.200;112.870;2023-04-01T04:28:26;20.80;66.40
41953;DHT22;63613;28.200;112.870;2023-04-01T04:30:54;20.80;68.80
41953;DHT22;63613;28.200;112.870;2023-04-01T04:33:22;20.80;66.90
41953;DHT22;63613;28.200;112.870;2023-04-01T04:35:54;20.80;65.20
41953;DHT22;63613;28.200;112.870;2023-04-01T04:38:21;21.20;61.30
41953;DHT22;63613;28.200;112.870;2023-04-01T04:40:50;21.00;64.00
41953;DHT22;63613;28.200;112.870;2023-04-01T04:43:20;21.00;66.00
41953;DHT22;63613;28.200;112.870;2023-04-01T04:45:50;21.30;61.90
41953;DHT22;63613;28.200;112.870;2023-04-01T04:48:17;21.60;60.50
41953;DHT22;63613;28.200;112.870;2023-04-01T04:50:48;21.60;61.80
41953;DHT22;63613;28.200;112.870;2023-04-01T04:53:17;21.30;62.90
41953;DHT22;63613;28.200;112.870;2023-04-01T04:55:47;21.30;61.10
41953;DHT22;63613;28.200;112.870;2023-04-01T04:58:14;21.50;59.40
41953;DHT22;63613;28.200;112.870;2023-04-01T05:00:44;21.30;62.10
41953;DHT22;63613;28.200;112.870;2023-04-01T05:03:12;21.30;61.10
41953;DHT22;63613;28.200;112.870;2023-04-01T05:05:40;21.30;61.10
41953;DHT22;63613;28.200;112.870;2023-04-01T05:08:13;21.30;59.70
41953;DHT22;63613;28.200;112.870;2023-04-01T05:10:40;21.20;59.50
41953;DHT22;63613;28.200;112.870;2023-04-01T05:13:08;21.20;59.60
41953;DHT22;63613;28.200;112.870;2023-04-01T05:15:35;21.30;58.50
41953;DHT22;63613;28.200;112.870;2023-04-01T05:18:03;21.50;56.40
41953;DHT22;63613;28.200;112.870;2023-04-01T05:20:52;21.70;57.10
41953;DHT22;63613;28.200;112.870;2023-04-01T05:23:20;21.50;57.70
41953;DHT22;63613;28.200;112.870;2023-04-01T05:25:48;21.70;57.20
41953;DHT22;63613;28.200;112.870;2023-04-01T05:28:17;21.80;57.60
41953;DHT22;63613;28.200;112.870;2023-04-01T05:30:47;21.70;58.30
41953;DHT22;63613;28.200;112.870;2023-04-01T05:33:14;21.60;57.20
41953;DHT22;63613;28.200;112.870;2023-04-01T05:36:12;21.60;56.70
41953;DHT22;63613;28.200;112.870;2023-04-01T05:38:40;21.50;56.30
41953;DHT22;63613;28.200;112.870;2023-04-01T05:41:08;21.50;55.70
41953;DHT22;63613;28.200;112.870;2023-04-01T05:43:40;21.50;55.30
41953;DHT22;63613;28.200;112.870;2023-04-01T05:46:07;21.70;55.40
41953;DHT22;63613;28.200;112.870;2023-04-01T05:48:35;21.80;55.80
41953;DHT22;63613;28.200;112.870;2023-04-01T05:51:03;21.80;56.00
41953;DHT22;63613;28.200;112.870;2023-04-01T05:53:30;21.80;56.40
41953;DHT22;63613;28.200;112.870;2023-04-01T05:56:03;21.80;56.30
41953;DHT22;63613;28.200;112.870;2023-04-01T05:58:32;21.80;55.40
41953;DHT22;63613;28.200;112.870;2023-04-01T06:01:04;21.70;55.80
41953;DHT22;63613;28.200;112.870;2023-04-01T06:03:31;21.80;55.70
41953;DHT22;63613;28.200;112.870;2023-04-01T06:05:58;21.80;55.20
41953;DHT22;63613;28.200;112.870;2023-04-01T06:08:29;21.80;54.50
41953;DHT22;63613;28.200;112.870;2023-04-01T06:13:51;21.80;54.50
41953;DHT22;63613;28.200;112.870;2023-04-01T06:19:50;21.80;54.10
41953;DHT22;63613;28.200;112.870;2023-04-01T06:25:04;21.80;53.80
41953;DHT22;63613;28.200;112.870;2023-04-01T06:33:50;22.10;52.80
41953;DHT22;63613;28.200;112.870;2023-04-01T06:42:34;21.90;54.70
41953;DHT22;63613;28.200;112.870;2023-04-01T06:56:16;21.90;54.00
41953;DHT22;63613;28.200;112.870;2023-04-01T06:59:24;21.90;53.40
41953;DHT22;63613;28.200;112.870;2023-04-01T07:01:45;22.10;51.70
41953;DHT22;63613;28.200;112.870;2023-04-01T07:04:35;22.20;52.40
41953;DHT22;63613;28.200;112.870;2023-04-01T07:07:50;22.30;51.70
41953;DHT22;63613;28.200;112.870;2023-04-01T07:09:58;22.30;52.20
41953;DHT22;63613;28.200;112.870;2023-04-01T07:15:24;22.20;52.90
41953;DHT22;63613;28.200;112.870;2023-04-01T07:18:37;22.10;52.80
41953;DHT22;63613;28.200;112.870;2023-04-01T07:20:43;22.20;52.90
41953;DHT22;63613;28.200;112.870;2023-04-01T07:23:33;22.10;52.70
41953;DHT22;63613;28.200;112.870;2023-04-01T07:26:21;22.10;52.90
41953;DHT22;63613;28.200;112.870;2023-04-01T07:28:52;22.40;51.80
41953;DHT22;63613;28.200;112.870;2023-04-01T07:31:32;22.60;51.90
41953;DHT22;63613;28.200;112.870;2023-04-01T07:40:10;22.30;53.10
41953;DHT22;63613;28.200;112.870;2023-04-01T07:51:15;22.30;53.30
41953;DHT22;63613;28.200;112.870;2023-04-01T07:54:09;22.30;53.10
41953;DHT22;63613;28.200;112.870;2023-04-01T08:05:26;22.20;52.90
41953;DHT22;63613;28.200;112.870;2023-04-01T08:10:51;22.40;51.70
41953;DHT22;63613;28.200;112.870;2023-04-01T08:16:26;22.30;52.10
41953;DHT22;63613;28.200;112.870;2023-04-01T08:21:43;22.30;51.10
41953;DHT22;63613;28.200;112.870;2023-04-01T08:24:44;22.30;51.40
41953;DHT22;63613;28.200;112.870;2023-04-01T08:27:34;22.60;47.90
41953;DHT22;63613;28.200;112.870;2023-04-01T08:30:24;22.80;46.90
41953;DHT22;63613;28.200;112.870;2023-04-01T08:33:27;22.50;49.80
41953;DHT22;63613;28.200;112.870;2023-04-01T08:36:03;22.30;50.20
41953;DHT22;63613;28.200;112.870;2023-04-01T08:39:02;22.30;49.40
41953;DHT22;63613;28.200;112.870;2023-04-01T09:05:31;22.00;52.20
41953;DHT22;63613;28.200;112.870;2023-04-01T09:08:17;22.00;52.40
41953;DHT22;63613;28.200;112.870;2023-04-01T09:11:05;21.90;52.70
41953;DHT22;63613;28.200;112.870;2023-04-01T09:19:35;22.20;52.00
41953;DHT22;63613;28.200;112.870;2023-04-01T09:25:21;22.00;52.70
41953;DHT22;63613;28.200;112.870;2023-04-01T09:28:05;21.90;53.10
41953;DHT22;63613;28.200;112.870;2023-04-01T09:30:57;21.90;53.70
41953;DHT22;63613;28.200;112.870;2023-04-01T09:41:36;21.90;52.00
41953;DHT22;63613;28.200;112.870;2023-04-01T09:45:04;22.00;51.50
41953;DHT22;63613;28.200;112.870;2023-04-01T09:53:30;21.90;53.30
41953;DHT22;63613;28.200;112.870;2023-04-01T09:59:47;21.80;54.30
41953;DHT22;63613;28.200;112.870;2023-04-01T10:02:28;21.80;53.90
41953;DHT22;63613;28.200;112.870;2023-04-01T10:32:52;21.50;54.60
41953;DHT22;63613;28.200;112.870;2023-04-01T10:35:53;21.50;54.80
41953;DHT22;63613;28.200;112.870;2023-04-01T10:38:43;21.50;55.30
41953;DHT22;63613;28.200;112.870;2023-04-01T10:44:23;21.50;55.00
41953;DHT22;63613;28.200;112.870;2023-04-01T10:58:05;21.40;59.20
41953;DHT22;63613;28.200;112.870;2023-04-01T11:18:17;21.30;61.00
41953;DHT22;63613;28.200;112.870;2023-04-01T11:26:21;21.30;60.80
41953;DHT22;63613;28.200;112.870;2023-04-01T11:38:03;21.30;60.60
41953;DHT22;63613;28.200;112.870;2023-04-01T11:46:46;21.30;59.80
41953;DHT22;63613;28.200;112.870;2023-04-01T11:49:36;21.30;59.50
41953;DHT22;63613;28.200;112.870;2023-04-01T11:57:51;21.30;59.50
41953;DHT22;63613;28.200;112.870;2023-04-01T12:00:45;21.30;59.60
41953;DHT22;63613;28.200;112.870;2023-04-01T12:14:44;21.30;58.90
41953;DHT22;63613;28.200;112.870;2023-04-01T12:20:43;21.30;58.80
41953;DHT22;63613;28.200;112.870;2023-04-01T12:26:42;21.30;58.70
41953;DHT22;63613;28.200;112.870;2023-04-01T12:29:36;21.30;58.60
41953;DHT22;63613;28.200;112.870;2023-04-01T12:32:53;21.30;58.60
41953;DHT22;63613;28.200;112.870;2023-04-01T12:35:30;21.30;58.60
41953;DHT22;63613;28.200;112.870;2023-04-01T12:43:48;21.30;58.50
41953;DHT22;63613;28.200;112.870;2023-04-01T12:52:04;21.30;58.60
41953;DHT22;63613;28.200;112.870;2023-04-01T12:58:06;21.20;58.90
41953;DHT22;63613;28.200;112.870;2023-04-01T13:09:10;21.30;59.20
41953;DHT22;63613;28.200;112.870;2023-04-01T13:15:01;21.20;59.20
41953;DHT22;63613;28.200;112.870;2023-04-01T13:20:11;21.30;59.40
41953;DHT22;63613;28.200;112.870;2023-04-01T13:28:04;21.20;59.20
41953;DHT22;63613;28.200;112.870;2023-04-01T13:30:44;21.30;59.10
41953;DHT22;63613;28.200;112.870;2023-04-01T13:41:36;21.20;59.00
41953;DHT22;63613;28.200;112.870;2023-04-01T13:44:31;21.20;59.00
41953;DHT22;63613;28.200;112.870;2023-04-01T13:47:24;21.20;58.80
41953;DHT22;63613;28.200;112.870;2023-04-01T13:58:58;21.20;59.70
41953;DHT22;63613;28.200;112.870;2023-04-01T14:01:37;21.20;59.80
41953;DHT22;63613;28.200;112.870;2023-04-01T14:04:32;21.20;60.30
41953;DHT22;63613;28.200;112.870;2023-04-01T14:10:16;21.20;60.80
41953;DHT22;63613;28.200;112.870;2023-04-01T14:13:18;21.20;61.10
41953;DHT22;63613;28.200;112.870;2023-04-01T14:16:16;21.20;61.20
41953;DHT22;63613;28.200;112.870;2023-04-01T14:24:32;21.20;61.20
41953;DHT22;63613;28.200;112.870;2023-04-01T14:30:31;21.10;63.90
41953;DHT22;63613;28.200;112.870;2023-04-01T14:36:12;21.10;65.60
41953;DHT22;63613;28.200;112.870;2023-04-01T14:41:54;21.00;66.60
41953;DHT22;63613;28.200;112.870;2023-04-01T14:50:13;21.00;67.90
41953;DHT22;63613;28.200;112.870;2023-04-01T14:55:59;21.00;68.10
41953;DHT22;63613;28.200;112.870;2023-04-01T14:58:57;21.00;68.60
41953;DHT22;63613;28.200;112.870;2023-04-01T15:01:34;21.00;68.80
41953;DHT22;63613;28.200;112.870;2023-04-01T15:04:47;21.00;69.10
41953;DHT22;63613;28.200;112.870;2023-04-01T15:13:14;21.00;69.40
41953;DHT22;63613;28.200;112.870;2023-04-01T15:19:08;20.90;70.60
41953;DHT22;63613;28.200;112.870;2023-04-01T15:21:49;20.90;71.10
41953;DHT22;63613;28.200;112.870;2023-04-01T15:24:24;20.90;71.10
41953;DHT22;63613;28.200;112.870;2023-04-01T15:30:11;20.90;71.30
41953;DHT22;63613;28.200;112.870;2023-04-01T15:46:58;20.90;71.30
41953;DHT22;63613;28.200;112.870;2023-04-01T15:53:13;20.90;71.40
41953;DHT22;63613;28.200;112.870;2023-04-01T16:04:17;20.90;71.40
41953;DHT22;63613;28.200;112.870;2023-04-01T16:12:44;20.90;71.70
41953;DHT22;63613;28.200;112.870;2023-04-01T16:24:08;20.80;72.20
41953;DHT22;63613;28.200;112.870;2023-04-01T16:26:48;20.90;72.20
41953;DHT22;63613;28.200;112.870;2023-04-01T16:29:30;20.90;72.00
41953;DHT22;63613;28.200;112.870;2023-04-01T16:32:44;20.80;72.10
41953;DHT22;63613;28.200;112.870;2023-04-01T16:35:30;20.80;72.20
41953;DHT22;63613;28.200;112.870;2023-04-01T16:54:54;20.80;73.70
41953;DHT22;63613;28.200;112.870;2023-04-01T17:03:20;20.80;74.00
41953;DHT22;63613;28.200;112.870;2023-04-01T17:06:03;20.80;74.00
41953;DHT22;63613;28.200;112.870;2023-04-01T17:11:21;20.80;74.40
41953;DHT22;63613;28.200;112.870;2023-04-01T17:22:32;20.80;74.80
41953;DHT22;63613;28.200;112.870;2023-04-01T17:25:20;20.80;74.80
41953;DHT22;63613;28.200;112.870;2023-04-01T17:30:39;20.80;74.90
41953;DHT22;63613;28.200;112.870;2023-04-01T17:36:21;20.80;75.00
41953;DHT22;63613;28.200;112.870;2023-04-01T17:41:54;20.80;75.20
41953;DHT22;63613;28.200;112.870;2023-04-01T17:44:38;20.80;75.40
41953;DHT22;63613;28.200;112.870;2023-04-01T17:47:28;20.80;75.40
41953;DHT22;63613;28.200;112.870;2023-04-01T17:50:14;20.80;75.70
41953;DHT22;63613;28.200;112.870;2023-04-01T17:53:09;20.80;75.70
41953;DHT22;63613;28.200;112.870;2023-04-01T17:58:52;20.80;75.70
41953;DHT22;63613;28.200;112.870;2023-04-01T18:04:15;20.80;75.90
41953;DHT22;63613;28.200;112.870;2023-04-01T18:13:04;20.80;75.90
41953;DHT22;63613;28.200;112.870;2023-04-01T18:21:50;20.80;75.90
41953;DHT22;63613;28.200;112.870;2023-04-01T18:26:49;20.80;76.20
41953;DHT22;63613;28.200;112.870;2023-04-01T18:37:41;20.80;76.50
41953;DHT22;63613;28.200;112.870;2023-04-01T18:40:22;20.70;76.60
41953;DHT22;63613;28.200;112.870;2023-04-01T18:43:27;20.80;76.70
41953;DHT22;63613;28.200;112.870;2023-04-01T18:46:13;20.80;76.70
41953;DHT22;63613;28.200;112.870;2023-04-01T18:56:46;20.80;76.90
41953;DHT22;63613;28.200;112.870;2023-04-01T19:13:14;20.80;76.80
41953;DHT22;63613;28.200;112.870;2023-04-01T19:15:52;20.80;76.70
41953;DHT22;63613;28.200;112.870;2023-04-01T19:21:16;20.70;76.70
41953;DHT22;63613;28.200;112.870;2023-04-01T19:24:31;20.70;76.70
41953;DHT22;63613;28.200;112.870;2023-04-01T19:45:07;20.80;77.00
41953;DHT22;63613;28.200;112.870;2023-04-01T19:50:58;20.80;77.20
41953;DHT22;63613;28.200;112.870;2023-04-01T19:53:46;20.80;77.10
41953;DHT22;63613;28.200;112.870;2023-04-01T19:56:22;20.80;77.20
41953;DHT22;63613;28.200;112.870;2023-04-01T19:59:19;20.80;77.20
41953;DHT22;63613;28.200;112.870;2023-04-01T20:04:54;20.80;77.10
41953;DHT22;63613;28.200;112.870;2023-04-01T20:07:44;20.70;76.80
41953;DHT22;63613;28.200;112.870;2023-04-01T20:18:50;20.70;76.50
41953;DHT22;63613;28.200;112.870;2023-04-01T20:24:16;20.80;76.60
41953;DHT22;63613;28.200;112.870;2023-04-01T20:27:07;20.70;76.70
41953;DHT22;63613;28.200;112.870;2023-04-01T20:29:47;20.70;76.80
41953;DHT22;63613;28.200;112.870;2023-04-01T20:32:28;20.70;76.90
41953;DHT22;63613;28.200;112.870;2023-04-01T20:38:06;20.70;77.00
41953;DHT22;63613;28.200;112.870;2023-04-01T20:40:40;20.70;76.90
41953;DHT22;63613;28.200;112.870;2023-04-01T20:48:53;20.70;77.40
41953;DHT22;63613;28.200;112.870;2023-04-01T20:51:38;20.70;77.30
41953;DHT22;63613;28.200;112.870;2023-04-01T21:05:45;20.70;77.40
41953;DHT22;63613;28.200;112.870;2023-04-01T21:08:39;20.70;77.40
41953;DHT22;63613;28.200;112.870;2023-04-01T21:11:16;20.70;77.10
41953;DHT22;63613;28.200;112.870;2023-04-01T21:19:38;20.70;77.20
41953;DHT22;63613;28.200;112.870;2023-04-01T21:22:41;20.70;77.20
41953;DHT22;63613;28.200;112.870;2023-04-01T21:34:02;20.70;77.00
41953;DHT22;63613;28.200;112.870;2023-04-01T21:39:42;20.70;76.80
41953;DHT22;63613;28.200;112.870;2023-04-01T21:50:47;20.70;76.60
41953;DHT22;63613;28.200;112.870;2023-04-01T21:56:14;20.60;76.60
41953;DHT22;63613;28.200;112.870;2023-04-01T22:07:22;20.60;76.80
41953;DHT22;63613;28.200;112.870;2023-04-01T22:11:03;20.60;76.80
41953;DHT22;63613;28.200;112.870;2023-04-01T22:19:29;20.70;76.70
41953;DHT22;63613;28.200;112.870;2023-04-01T22:22:33;20.60;76.50
41953;DHT22;63613;28.200;112.870;2023-04-01T22:28:09;20.60;76.50
41953;DHT22;63613;28.200;112.870;2023-04-01T22:30:45;20.60;76.10
41953;DHT22;63613;28.200;112.870;2023-04-01T22:44:39;20.60;75.90
41953;DHT22;63613;28.200;112.870;2023-04-01T22:47:29;20.70;76.10
41953;DHT22;63613;28.200;112.870;2023-04-01T22:52:44;20.60;76.10
41953;DHT22;63613;28.200;112.870;2023-04-01T22:55:30;20.60;76.20
41953;DHT22;63613;28.200;112.870;2023-04-01T22:58:11;20.60;76.20
41953;DHT22;63613;28.200;112.870;2023-04-01T23:00:43;20.60;76.10
41953;DHT22;63613;28.200;112.870;2023-04-01T23:03:19;20.70;76.10
41953;DHT22;63613;28.200;112.870;2023-04-01T23:05:58;20.60;76.20
41953;DHT22;63613;28.200;112.870;2023-04-01T23:17:12;20.70;76.40
41953;DHT22;63613;28.200;112.870;2023-04-01T23:20:00;20.70;76.50
41953;DHT22;63613;28.200;112.870;2023-04-01T23:22:58;20.60;76.20
41953;DHT22;63613;28.200;112.870;2023-04-01T23:31:49;20.70;75.70
41953;DHT22;63613;28.200;112.870;2023-04-01T23:34:44;20.70;75.30
41953;DHT22;63613;28.200;112.870;2023-04-01T23:36:59;20.60;74.80
41953;DHT22;63613;28.200;112.870;2023-04-01T23:39:32;20.70;74.60
41953;DHT22;63613;28.200;112.870;2023-04-01T23:42:03;20.70;74.00
41953;DHT22;63613;28.200;112.870;2023-04-01T23:44:32;20.70;73.70
41953;DHT22;63613;28.200;112.870;2023-04-01T23:46:59;20.70;73.50
41953;DHT22;63613;28.200;112.870;2023-04-01T23:49:35;20.70;73.40
41953;DHT22;63613;28.200;112.870;2023-04-01T23:52:14;20.70;74.00
41953;DHT22;63613;28.200;112.870;2023-04-01T23:54:48;20.60;73.90
41953;DHT22;63613;28.200;112.870;2023-04-01T23:57:36;20.70;74.50
